createdAt,value
2024-05-09T11:29:01.569Z,102083.44
2024-05-09T11:31:29.349Z,102154.50
2024-05-09T11:34:03.539Z,102115.91
2024-05-09T11:36:31.284Z,102122.66
2024-05-09T11:39:03.847Z,102078.78
2024-05-09T11:41:32.822Z,102116.72
2024-05-09T11:44:09.920Z,102094.75
2024-05-09T11:46:39.602Z,102083.28
2024-05-09T11:55:04.804Z,102129.31
2024-05-09T11:57:33.422Z,102127.41
2024-05-09T12:00:11.878Z,102064.88
2024-05-09T12:02:40.039Z,102127.63
2024-05-09T12:05:12.384Z,102066.56
2024-05-09T12:07:48.823Z,102127.22
2024-05-09T12:10:34.763Z,102070.66
2024-05-09T12:13:24.506Z,102072.44
2024-05-09T12:16:06.099Z,102097.16
2024-05-09T12:18:34.506Z,102081.28
2024-05-09T12:21:07.282Z,102084.75
2024-05-09T12:23:35.585Z,102068.97
2024-05-09T12:26:06.577Z,102080.44
2024-05-09T12:28:35.587Z,102034.38
2024-05-09T12:31:13.607Z,102022.09
2024-05-09T12:33:42.760Z,102093.53
2024-05-09T12:36:15.464Z,102009.63
2024-05-09T12:38:51.699Z,102006.34
2024-05-09T12:41:31.731Z,102003.44
2024-05-09T12:43:59.506Z,101983.03
2024-05-09T12:46:39.741Z,102072.03
2024-05-09T12:49:07.984Z,102066.59
2024-05-09T12:51:39.058Z,102027.59
2024-05-09T12:54:07.576Z,101948.38
2024-05-09T13:02:23.621Z,102064.56
2024-05-09T13:07:37.311Z,102008.56
2024-05-09T13:10:11.501Z,101986.44
2024-05-09T13:12:42.763Z,102039.28
2024-05-09T13:15:11.446Z,102061.22
2024-05-09T13:17:47.667Z,102032.78
2024-05-09T13:20:25.696Z,102042.31
2024-05-09T13:23:01.291Z,102058.31
2024-05-09T13:25:30.007Z,102061.06
2024-05-09T13:30:44.312Z,102056.47
2024-05-09T13:33:32.229Z,101990.94
2024-05-09T13:36:03.312Z,102049.34
2024-05-09T13:38:39.369Z,102048.88
2024-05-09T13:43:55.375Z,102052.38
2024-05-09T13:46:24.231Z,102056.94
2024-05-09T13:48:59.773Z,102044.09
2024-05-09T13:51:28.504Z,102031.41
2024-05-09T13:54:11.828Z,102016.38
2024-05-09T13:56:40.536Z,102029.38
2024-05-09T13:59:13.632Z,102031.22
2024-05-09T14:04:33.720Z,101991.31
2024-05-09T14:07:02.815Z,102041.19
2024-05-09T14:09:34.540Z,102018.91
2024-05-09T14:12:04.264Z,102024.84
2024-05-09T14:14:36.555Z,102015.13
2024-05-09T14:17:05.107Z,102012.25
2024-05-09T14:19:42.974Z,101997.06
2024-05-09T14:22:12.593Z,102006.66
2024-05-09T14:24:44.023Z,102020.34
2024-05-09T14:27:12.607Z,101990.16
2024-05-09T14:29:51.822Z,102015.72
2024-05-09T14:35:11.191Z,102013.81
2024-05-09T14:37:43.046Z,102002.25
2024-05-09T14:42:50.588Z,101962.66
2024-05-09T14:48:05.353Z,102021.41
2024-05-09T14:53:41.686Z,102020.19
2024-05-09T14:59:05.989Z,102008.72
2024-05-09T15:01:39.499Z,101918.53
2024-05-09T15:04:09.643Z,101946.53
2024-05-09T15:09:26.036Z,101980.97
2024-05-09T15:12:11.232Z,101997.75
2024-05-09T15:14:43.747Z,102003.03
2024-05-09T15:28:59.961Z,101957.63
2024-05-09T15:36:54.150Z,101952.31
2024-05-09T15:39:47.321Z,101973.44
2024-05-09T15:45:09.695Z,101917.94
2024-05-09T15:47:39.851Z,101925.88
2024-05-09T15:56:00.056Z,101858.81
2024-05-09T15:58:31.619Z,101902.78
2024-05-09T16:03:45.686Z,101909.91
2024-05-09T16:09:00.925Z,101936.22
2024-05-09T16:11:33.776Z,101945.00
2024-05-09T16:22:18.905Z,101905.69
2024-05-09T16:24:55.630Z,101915.56
2024-05-09T16:27:56.215Z,101871.94
2024-05-09T16:30:35.975Z,101923.84
2024-05-09T16:33:10.403Z,101851.81
2024-05-09T16:38:29.618Z,101908.00
2024-05-09T16:41:00.165Z,101885.91
2024-05-09T16:46:39.118Z,101891.94
2024-05-09T16:49:08.488Z,101907.97
2024-05-09T16:51:52.202Z,101881.91
2024-05-09T16:54:25.911Z,101832.53
2024-05-09T16:56:54.233Z,101909.81
2024-05-09T16:59:30.953Z,101863.97
2024-05-09T17:02:32.333Z,101890.22
2024-05-09T17:05:30.374Z,101892.97
2024-05-09T17:08:01.064Z,101864.22
2024-05-09T17:10:35.370Z,101872.91
2024-05-09T17:13:08.687Z,101883.56
2024-05-09T17:18:37.809Z,101876.16
2024-05-09T17:21:25.209Z,101803.03
2024-05-09T17:23:59.153Z,101862.75
2024-05-09T17:26:27.266Z,101861.88
2024-05-09T17:28:59.166Z,101833.94
2024-05-09T17:31:27.876Z,101806.66
2024-05-09T17:34:00.348Z,101802.34
2024-05-09T17:36:36.535Z,101843.56
2024-05-09T17:39:19.710Z,101839.19
2024-05-09T17:41:59.934Z,101837.38
2024-05-09T17:44:28.383Z,101779.22
2024-05-09T17:49:46.528Z,101831.88
2024-05-09T17:52:24.123Z,101832.09
2024-05-09T17:55:00.729Z,101834.63
2024-05-09T17:57:33.044Z,101827.56
2024-05-09T18:02:50.335Z,101769.13
2024-05-09T18:08:39.730Z,101742.69
